createdAt,value
2018-06-02T00:00:42.228Z,20.00
2018-06-02T00:01:42.201Z,19.97
2018-06-02T00:02:42.178Z,20.01
2018-06-02T00:03:42.157Z,20.07
2018-06-02T00:04:42.145Z,20.05
2018-06-02T00:05:42.112Z,20.08
2018-06-02T00:06:42.090Z,20.10
2018-06-02T00:07:42.069Z,20.08
2018-06-02T00:08:42.047Z,20.08
2018-06-02T00:09:42.024Z,20.07
2018-06-02T00:10:42.003Z,20.07
2018-06-02T00:11:41.981Z,20.01
2018-06-02T00:12:41.961Z,20.00
2018-06-02T00:13:41.942Z,19.94
2018-06-02T00:14:41.922Z,20.01
2018-06-02T00:15:41.894Z,20.12
2018-06-02T00:16:41.875Z,20.05
2018-06-02T00:17:41.851Z,20.10
2018-06-02T00:18:41.834Z,20.12
2018-06-02T00:19:41.805Z,20.08
2018-06-02T00:20:41.785Z,20.04
2018-06-02T00:21:41.768Z,20.04
2018-06-02T00:22:41.740Z,20.07
2018-06-02T00:23:41.719Z,20.02
2018-06-02T00:24:41.697Z,19.98
2018-06-02T00:25:41.675Z,20.02
2018-06-02T00:26:41.655Z,20.13
2018-06-02T00:27:41.632Z,20.16
2018-06-02T00:28:41.611Z,20.10
2018-06-02T00:29:41.588Z,20.05
2018-06-02T00:30:41.565Z,20.05
2018-06-02T00:31:41.546Z,19.92
2018-06-02T00:32:41.527Z,19.95
2018-06-02T00:33:41.500Z,19.89
2018-06-02T00:34:41.479Z,20.00
2018-06-02T00:35:41.458Z,20.01
2018-06-02T00:36:41.437Z,19.94
2018-06-02T00:37:41.414Z,19.89
2018-06-02T00:38:41.392Z,19.98
2018-06-02T00:39:41.371Z,19.94
2018-06-02T00:40:41.348Z,19.94
2018-06-02T00:41:41.326Z,19.90
2018-06-02T00:42:41.304Z,19.95
2018-06-02T00:43:41.283Z,19.95
2018-06-02T00:44:41.272Z,20.04
2018-06-02T00:45:41.239Z,20.08
2018-06-02T00:46:41.217Z,20.02
2018-06-02T00:47:41.195Z,19.98
2018-06-02T00:48:41.172Z,20.04
2018-06-02T00:49:41.151Z,20.02
2018-06-02T00:50:41.129Z,20.08
2018-06-02T00:51:41.107Z,19.97
2018-06-02T00:52:41.086Z,20.01
2018-06-02T00:53:41.067Z,20.04
2018-06-02T00:54:41.044Z,20.07
2018-06-02T00:55:41.020Z,20.05
2018-06-02T00:56:40.999Z,20.05
2018-06-02T00:57:40.975Z,20.12
2018-06-02T00:58:40.955Z,20.05
2018-06-02T00:59:40.932Z,20.12
2018-06-02T01:00:40.919Z,19.98
2018-06-02T01:01:40.886Z,20.08
2018-06-02T01:02:40.896Z,20.02
2018-06-02T01:03:40.852Z,19.97
2018-06-02T01:04:40.826Z,20.08
2018-06-02T01:05:40.800Z,19.98
2018-06-02T01:06:40.785Z,20.00
2018-06-02T01:07:40.756Z,20.04
2018-06-02T01:08:40.734Z,20.05
2018-06-02T01:09:40.713Z,20.08
2018-06-02T01:10:40.690Z,20.23
2018-06-02T01:11:40.669Z,20.22
2018-06-02T01:12:40.647Z,20.25
2018-06-02T01:13:40.629Z,20.25
2018-06-02T01:14:40.602Z,20.23
2018-06-02T01:15:40.582Z,20.25
2018-06-02T01:16:40.561Z,20.19
2018-06-02T01:17:40.536Z,20.23
2018-06-02T01:18:40.667Z,20.17
2018-06-02T01:19:40.493Z,20.19
2018-06-02T01:20:40.472Z,20.15
2018-06-02T01:21:40.448Z,20.16
2018-06-02T01:22:40.427Z,20.17
2018-06-02T01:23:40.405Z,20.07
2018-06-02T01:24:40.383Z,20.07
2018-06-02T01:25:40.361Z,20.05
2018-06-02T01:26:40.342Z,20.16
2018-06-02T01:27:40.317Z,20.19
2018-06-02T01:28:40.298Z,20.07
2018-06-02T01:29:40.280Z,20.08
2018-06-02T01:30:40.250Z,20.17
2018-06-02T01:31:40.229Z,20.15
2018-06-02T01:32:40.208Z,20.17
2018-06-02T01:33:40.185Z,20.17
2018-06-02T01:34:40.165Z,20.25
2018-06-02T01:35:40.143Z,20.26
2018-06-02T01:36:40.122Z,20.25
2018-06-02T01:37:40.098Z,20.23
2018-06-02T01:38:40.079Z,20.19
2018-06-02T01:39:40.055Z,20.20
2018-06-02T01:40:40.033Z,20.22
2018-06-02T01:41:40.014Z,20.30
2018-06-02T01:42:39.989Z,20.31
2018-06-02T01:43:39.968Z,20.34
2018-06-02T01:44:39.945Z,20.33
2018-06-02T01:45:39.929Z,20.30
2018-06-02T01:46:39.901Z,20.30
2018-06-02T01:47:39.879Z,20.38
2018-06-02T01:48:39.864Z,20.30
2018-06-02T01:49:39.834Z,20.37
2018-06-02T01:50:39.817Z,20.38
2018-06-02T01:51:39.791Z,20.37
2018-06-02T01:52:39.770Z,20.34
2018-06-02T01:53:39.750Z,20.38
2018-06-02T01:54:39.726Z,20.27
2018-06-02T01:55:39.704Z,20.38
2018-06-02T01:56:39.683Z,20.27
2018-06-02T01:57:39.663Z,20.38
2018-06-02T01:58:39.639Z,20.38
2018-06-02T01:59:39.618Z,20.42
2018-06-02T02:00:39.595Z,20.38
2018-06-02T02:01:39.574Z,20.33
2018-06-02T02:02:39.551Z,20.38
2018-06-02T02:03:39.530Z,20.51
2018-06-02T02:04:39.507Z,20.56
2018-06-02T02:05:39.485Z,20.46
2018-06-02T02:06:39.464Z,20.38
2018-06-02T02:07:39.443Z,20.33
2018-06-02T02:08:39.421Z,20.46
2018-06-02T02:09:39.400Z,20.51
2018-06-02T02:10:39.375Z,20.53
2018-06-02T02:11:39.361Z,20.34
2018-06-02T02:12:39.334Z,20.34
2018-06-02T02:13:39.311Z,20.27
2018-06-02T02:14:39.289Z,20.38
2018-06-02T02:15:39.268Z,20.40
2018-06-02T02:16:39.247Z,20.38
2018-06-02T02:17:39.374Z,20.35
2018-06-02T02:18:39.203Z,20.38
2018-06-02T02:19:39.181Z,20.34
2018-06-02T02:20:39.160Z,20.37
2018-06-02T02:21:39.137Z,20.41
2018-06-02T02:22:39.117Z,20.41
2018-06-02T02:23:39.093Z,20.38
2018-06-02T02:24:39.074Z,20.34
2018-06-02T02:25:39.050Z,20.34
2018-06-02T02:26:39.029Z,20.38
2018-06-02T02:27:39.015Z,20.35
2018-06-02T02:28:38.985Z,20.34
2018-06-02T02:29:38.964Z,20.42
2018-06-02T02:30:38.947Z,20.48
2018-06-02T02:31:38.921Z,20.40
2018-06-02T02:32:38.899Z,20.38
2018-06-02T02:33:38.877Z,20.41
2018-06-02T02:34:38.856Z,20.35
2018-06-02T02:35:38.834Z,20.37
2018-06-02T02:36:38.823Z,20.37
2018-06-02T02:37:38.791Z,20.25
2018-06-02T02:38:38.769Z,20.27
2018-06-02T02:39:38.749Z,20.34
2018-06-02T02:40:38.727Z,20.25
2018-06-02T02:41:38.706Z,20.23
2018-06-02T02:42:38.682Z,20.34
2018-06-02T02:43:38.661Z,20.27
2018-06-02T02:44:38.644Z,20.20
2018-06-02T02:45:38.617Z,20.25
2018-06-02T02:46:38.596Z,20.30
2018-06-02T02:47:38.575Z,20.23
2018-06-02T02:48:38.554Z,20.19
2018-06-02T02:49:38.530Z,20.27
2018-06-02T02:50:38.508Z,20.19
2018-06-02T02:51:38.491Z,20.22
2018-06-02T02:52:38.616Z,20.26
2018-06-02T02:53:38.442Z,20.30
2018-06-02T02:54:38.422Z,20.26
2018-06-02T02:55:38.399Z,20.25
2018-06-02T02:56:38.382Z,20.30
2018-06-02T02:57:38.361Z,20.30
2018-06-02T02:58:38.335Z,20.30
2018-06-02T02:59:38.314Z,20.33
2018-06-02T03:00:38.295Z,20.33
2018-06-02T03:01:38.270Z,20.23
2018-06-02T03:02:38.249Z,20.30
2018-06-02T03:03:38.230Z,20.35
2018-06-02T03:04:38.205Z,20.34
2018-06-02T03:05:38.185Z,20.30
2018-06-02T03:06:38.162Z,20.34
2018-06-02T03:07:38.140Z,20.33
2018-06-02T03:08:38.119Z,20.37
2018-06-02T03:09:38.097Z,20.31
2018-06-02T03:10:38.075Z,20.44
2018-06-02T03:11:38.059Z,20.34
2018-06-02T03:12:38.035Z,20.35
2018-06-02T03:13:38.013Z,20.35
2018-06-02T03:14:37.995Z,20.53
2018-06-02T03:15:37.967Z,20.40
2018-06-02T03:16:37.950Z,20.35
2018-06-02T03:17:37.924Z,20.33
2018-06-02T03:18:37.902Z,20.35
2018-06-02T03:19:37.883Z,20.41
2018-06-02T03:20:37.860Z,20.33
2018-06-02T03:21:37.837Z,20.35
2018-06-02T03:22:37.825Z,20.34
2018-06-02T03:23:37.794Z,20.40
2018-06-02T03:24:37.773Z,20.35
2018-06-02T03:25:37.751Z,20.31
2018-06-02T03:26:37.730Z,20.38
2018-06-02T03:27:37.708Z,20.37
2018-06-02T03:28:37.687Z,20.27
2018-06-02T03:29:37.668Z,20.37
2018-06-02T03:30:37.646Z,20.30
2018-06-02T03:31:37.628Z,20.30
2018-06-02T03:32:37.601Z,20.38
2018-06-02T03:33:37.583Z,20.37
2018-06-02T03:34:37.557Z,20.27
2018-06-02T03:35:37.539Z,20.33
2018-06-02T03:36:37.515Z,20.35
2018-06-02T03:37:37.495Z,20.37
2018-06-02T03:38:37.472Z,20.22
2018-06-02T03:39:37.449Z,20.37
2018-06-02T03:40:37.429Z,20.30
2018-06-02T03:41:37.407Z,20.26
2018-06-02T03:42:37.385Z,20.33
2018-06-02T03:43:37.364Z,20.37
2018-06-02T03:44:37.343Z,20.33
2018-06-02T03:45:37.319Z,20.35
2018-06-02T03:46:37.308Z,20.40
2018-06-02T03:47:37.281Z,20.41
2018-06-02T03:48:37.266Z,20.27
2018-06-02T03:49:37.236Z,20.33
2018-06-02T03:50:37.215Z,20.40
2018-06-02T03:51:37.192Z,20.37
2018-06-02T03:52:37.178Z,20.37
2018-06-02T03:53:37.150Z,20.35
2018-06-02T03:54:37.128Z,20.26
2018-06-02T03:55:37.111Z,20.26
2018-06-02T03:56:37.086Z,20.27
2018-06-02T03:57:37.064Z,20.38
2018-06-02T03:58:37.042Z,20.38
2018-06-02T03:59:37.026Z,20.40
2018-06-02T04:00:37.000Z,20.38
2018-06-02T04:01:36.976Z,20.31
2018-06-02T04:02:36.957Z,20.34
2018-06-02T04:03:36.935Z,20.37
2018-06-02T04:04:36.918Z,20.25
2018-06-02T04:05:36.895Z,20.25
2018-06-02T04:06:36.875Z,20.19
2018-06-02T04:07:36.859Z,20.19
2018-06-02T04:08:36.828Z,20.25
2018-06-02T04:09:36.807Z,20.22
2018-06-02T04:10:36.784Z,20.23
2018-06-02T04:11:36.764Z,20.20
2018-06-02T04:12:36.744Z,20.17
2018-06-02T04:13:36.719Z,20.22
2018-06-02T04:14:36.700Z,20.22
2018-06-02T04:15:36.677Z,20.22
2018-06-02T04:16:36.656Z,20.15
2018-06-02T04:17:36.634Z,20.13
2018-06-02T04:18:36.613Z,20.17
2018-06-02T04:19:36.592Z,20.17
2018-06-02T04:20:36.570Z,20.15
2018-06-02T04:21:36.551Z,20.13
2018-06-02T04:22:36.527Z,20.12
2018-06-02T04:23:36.506Z,20.12
2018-06-02T04:24:36.485Z,20.07
2018-06-02T04:25:36.462Z,20.15
2018-06-02T04:26:36.445Z,20.05
2018-06-02T04:27:36.434Z,20.04
2018-06-02T04:28:36.398Z,19.92
2018-06-02T04:29:36.376Z,19.90
2018-06-02T04:30:36.366Z,20.00
2018-06-02T04:31:36.333Z,20.01
2018-06-02T04:32:36.313Z,19.97
2018-06-02T04:33:36.290Z,20.01
2018-06-02T04:34:36.269Z,20.05
2018-06-02T04:35:36.248Z,20.01
2018-06-02T04:36:36.225Z,20.04
2018-06-02T04:37:36.205Z,19.97
2018-06-02T04:38:36.183Z,19.86
2018-06-02T04:39:36.161Z,19.97
2018-06-02T04:40:36.141Z,19.94
2018-06-02T04:41:36.140Z,19.94
2018-06-02T04:42:36.097Z,19.89
2018-06-02T04:43:36.076Z,19.89
2018-06-02T04:44:36.055Z,19.89
2018-06-02T04:45:36.034Z,19.98
2018-06-02T04:46:36.012Z,19.89
2018-06-02T04:47:35.990Z,19.83
2018-06-02T04:48:35.973Z,19.83
2018-06-02T04:49:35.947Z,19.75
2018-06-02T04:50:35.930Z,19.78
2018-06-02T04:51:35.904Z,19.78
2018-06-02T04:52:35.888Z,19.76
2018-06-02T04:53:35.863Z,19.75
2018-06-02T04:54:35.840Z,19.61
2018-06-02T04:55:35.818Z,19.67
2018-06-02T04:56:35.797Z,19.67
2018-06-02T04:57:35.781Z,19.52
2018-06-02T04:58:35.753Z,19.61
2018-06-02T04:59:35.733Z,19.53
2018-06-02T05:00:35.713Z,19.52
2018-06-02T05:01:35.691Z,19.50
2018-06-02T05:02:35.668Z,19.49
2018-06-02T05:03:35.646Z,19.58
2018-06-02T05:04:35.625Z,19.65
2018-06-02T05:05:35.603Z,19.61
2018-06-02T05:06:35.582Z,19.64
2018-06-02T05:07:35.563Z,19.62
2018-06-02T05:08:35.539Z,19.47
2018-06-02T05:09:35.517Z,19.50
2018-06-02T05:10:35.497Z,19.60
2018-06-02T05:11:35.478Z,19.61
2018-06-02T05:12:35.453Z,19.61
2018-06-02T05:13:35.432Z,19.57
2018-06-02T05:14:35.411Z,19.62
2018-06-02T05:15:35.389Z,19.58
2018-06-02T05:16:35.368Z,19.62
2018-06-02T05:17:35.350Z,19.52
2018-06-02T05:18:35.324Z,19.55
2018-06-02T05:19:35.305Z,19.52
2018-06-02T05:20:35.286Z,19.67
2018-06-02T05:21:35.262Z,19.58
2018-06-02T05:22:35.241Z,19.47
2018-06-02T05:23:35.217Z,19.52
2018-06-02T05:24:35.197Z,19.57
2018-06-02T05:25:35.174Z,19.53
2018-06-02T05:26:35.158Z,19.50
2018-06-02T05:27:35.132Z,19.50
2018-06-02T05:28:35.110Z,19.47
2018-06-02T05:29:35.088Z,19.62
2018-06-02T05:30:35.072Z,19.50
2018-06-02T05:31:35.046Z,19.64
2018-06-02T05:32:35.025Z,19.49
2018-06-02T05:33:35.003Z,19.45
2018-06-02T05:34:34.981Z,19.55
2018-06-02T05:35:34.961Z,19.50
2018-06-02T05:36:34.940Z,19.53
2018-06-02T05:37:34.916Z,19.53
2018-06-02T05:38:34.897Z,19.64
2018-06-02T05:39:34.873Z,19.65
2018-06-02T05:40:34.906Z,19.67
2018-06-02T05:41:34.830Z,19.64
2018-06-02T05:42:34.808Z,19.62
2018-06-02T05:43:34.790Z,19.58
2018-06-02T05:44:34.769Z,19.49
2018-06-02T05:45:34.744Z,19.47
2018-06-02T05:46:34.723Z,19.43
2018-06-02T05:47:34.702Z,19.43
2018-06-02T05:48:34.689Z,19.42
2018-06-02T05:49:34.813Z,19.35
2018-06-02T05:50:34.638Z,19.45
2018-06-02T05:51:34.616Z,19.47
2018-06-02T05:52:34.598Z,19.40
2018-06-02T05:53:34.572Z,19.30
2018-06-02T05:54:34.557Z,19.32
2018-06-02T05:55:34.529Z,19.28
2018-06-02T05:56:34.513Z,19.34
2018-06-02T05:57:34.489Z,19.35
2018-06-02T05:58:34.465Z,19.38
2018-06-02T05:59:34.442Z,19.20
2018-06-02T06:00:34.422Z,19.20
2018-06-02T06:01:34.398Z,19.20
2018-06-02T06:02:34.376Z,19.16
2018-06-02T06:03:34.354Z,19.24
2018-06-02T06:04:34.333Z,19.25
2018-06-02T06:05:34.316Z,19.25
2018-06-02T06:06:34.288Z,19.24
2018-06-02T06:07:34.768Z,19.24
2018-06-02T06:08:34.246Z,19.23
2018-06-02T06:09:34.228Z,19.23
2018-06-02T06:10:34.202Z,19.30
2018-06-02T06:11:34.180Z,19.38
2018-06-02T06:12:34.158Z,19.28
2018-06-02T06:13:34.135Z,19.34
2018-06-02T06:14:34.119Z,19.34
2018-06-02T06:15:34.094Z,19.34
2018-06-02T06:16:34.073Z,19.39
2018-06-02T06:17:34.050Z,19.39
2018-06-02T06:18:34.031Z,19.42
2018-06-02T06:19:34.047Z,19.40
2018-06-02T06:20:33.983Z,19.42
2018-06-02T06:21:33.963Z,19.30
2018-06-02T06:22:33.939Z,19.31
2018-06-02T06:23:33.918Z,19.23
2018-06-02T06:24:33.896Z,19.15
2018-06-02T06:25:33.875Z,19.17
2018-06-02T06:26:33.852Z,19.12
2018-06-02T06:27:33.830Z,19.07
2018-06-02T06:28:33.813Z,19.02
2018-06-02T06:29:33.787Z,18.97
2018-06-02T06:30:33.763Z,18.93
2018-06-02T06:31:33.749Z,18.87
2018-06-02T06:32:33.720Z,18.90
2018-06-02T06:33:33.701Z,18.87
2018-06-02T06:34:33.675Z,18.84
2018-06-02T06:35:33.653Z,18.76
2018-06-02T06:36:33.630Z,18.74
2018-06-02T06:37:33.608Z,18.83
2018-06-02T06:38:33.586Z,18.83
2018-06-02T06:39:33.563Z,18.75
2018-06-02T06:40:33.541Z,18.87
2018-06-02T06:41:33.518Z,18.86
2018-06-02T06:42:33.650Z,18.86
2018-06-02T06:43:33.474Z,18.79
2018-06-02T06:44:33.479Z,18.79
2018-06-02T06:45:33.427Z,18.82
2018-06-02T06:46:33.440Z,18.76
2018-06-02T06:47:33.389Z,18.82
2018-06-02T06:48:33.369Z,18.83
2018-06-02T06:49:33.346Z,18.89
2018-06-02T06:50:33.319Z,18.78
2018-06-02T06:51:33.294Z,18.83
2018-06-02T06:52:33.271Z,18.71
2018-06-02T06:53:33.255Z,18.75
2018-06-02T06:54:33.229Z,18.69
2018-06-02T06:55:33.205Z,18.75
2018-06-02T06:56:33.183Z,18.72
2018-06-02T06:57:33.159Z,18.76
2018-06-02T06:58:33.137Z,18.75
2018-06-02T06:59:33.115Z,18.76
2018-06-02T07:00:33.097Z,18.84
2018-06-02T07:01:33.076Z,18.83
2018-06-02T07:02:33.048Z,18.87
2018-06-02T07:03:33.025Z,18.82
2018-06-02T07:04:33.004Z,18.83
2018-06-02T07:05:32.982Z,18.91
2018-06-02T07:06:33.163Z,18.89
2018-06-02T07:07:32.937Z,18.90
2018-06-02T07:08:32.916Z,18.86
2018-06-02T07:09:32.897Z,18.84
2018-06-02T07:10:32.873Z,18.90
2018-06-02T07:11:32.848Z,18.71
2018-06-02T07:12:32.832Z,18.79
2018-06-02T07:13:32.801Z,18.83
2018-06-02T07:14:32.780Z,18.78
2018-06-02T07:15:32.757Z,18.71
2018-06-02T07:16:32.736Z,18.71
2018-06-02T07:17:32.712Z,18.83
2018-06-02T07:18:32.690Z,18.72
2018-06-02T07:19:32.669Z,18.75
2018-06-02T07:20:32.646Z,18.79
2018-06-02T07:21:32.624Z,18.74
2018-06-02T07:22:32.606Z,18.75
2018-06-02T07:23:32.578Z,18.83
2018-06-02T07:24:32.559Z,18.82
2018-06-02T07:25:32.536Z,18.78
2018-06-02T07:26:32.513Z,18.84
2018-06-02T07:27:32.523Z,18.74
2018-06-02T07:28:32.472Z,18.86
2018-06-02T07:29:32.445Z,18.82
2018-06-02T07:30:32.425Z,18.83
2018-06-02T07:31:32.403Z,18.83
2018-06-02T07:32:32.381Z,18.84
2018-06-02T07:33:32.359Z,18.82
2018-06-02T07:34:32.340Z,18.86
2018-06-02T07:35:32.315Z,18.78
2018-06-02T07:36:32.294Z,18.93
2018-06-02T07:37:32.270Z,18.87
2018-06-02T07:38:32.250Z,18.86
2018-06-02T07:39:32.226Z,18.83
2018-06-02T07:40:32.205Z,18.86
2018-06-02T07:41:32.182Z,18.84
2018-06-02T07:42:32.159Z,18.93
2018-06-02T07:43:32.138Z,18.91
2018-06-02T07:44:32.116Z,18.94
2018-06-02T07:45:32.094Z,18.90
2018-06-02T07:46:32.074Z,18.86
2018-06-02T07:47:32.050Z,18.86
2018-06-02T07:48:32.033Z,18.97
2018-06-02T07:49:32.006Z,19.06
2018-06-02T07:50:31.986Z,18.91
2018-06-02T07:51:31.965Z,18.91
2018-06-02T07:52:31.940Z,18.93
2018-06-02T07:53:31.917Z,18.99
2018-06-02T07:54:31.895Z,18.86
2018-06-02T07:55:31.879Z,18.97
2018-06-02T07:56:31.857Z,18.97
2018-06-02T07:57:31.832Z,18.96
2018-06-02T07:58:31.814Z,19.10
2018-06-02T07:59:31.785Z,19.06
2018-06-02T08:00:31.764Z,18.89
2018-06-02T08:01:31.741Z,18.87
2018-06-02T08:02:31.724Z,18.93
2018-06-02T08:03:31.701Z,18.94
2018-06-02T08:04:31.682Z,19.07
2018-06-02T08:05:31.653Z,18.97
2018-06-02T08:06:31.632Z,19.05
2018-06-02T08:07:31.611Z,19.02
2018-06-02T08:08:31.665Z,19.07
2018-06-02T08:09:31.566Z,19.27
2018-06-02T08:10:31.545Z,19.34
2018-06-02T08:11:31.524Z,19.27
2018-06-02T08:12:31.506Z,19.30
2018-06-02T08:13:31.480Z,19.39
2018-06-02T08:14:31.457Z,19.47
2018-06-02T08:15:31.438Z,19.49
2018-06-02T08:16:31.569Z,19.60
2018-06-02T08:17:31.398Z,19.52
2018-06-02T08:18:31.377Z,19.49
2018-06-02T08:19:31.358Z,19.45
2018-06-02T08:20:31.343Z,19.47
2018-06-02T08:21:31.313Z,19.65
2018-06-02T08:22:31.495Z,19.61
2018-06-02T08:23:31.270Z,19.89
2018-06-02T08:24:31.253Z,19.89
2018-06-02T08:26:13.587Z,19.86
2018-06-02T08:27:13.362Z,19.89
2018-06-02T08:28:14.157Z,19.83
2018-06-02T08:29:13.321Z,19.83
2018-06-02T08:30:13.305Z,19.78
2018-06-02T08:31:13.280Z,19.72
2018-06-02T08:32:13.275Z,19.92
2018-06-02T08:33:13.242Z,19.95
2018-06-02T08:34:13.220Z,19.75
2018-06-02T08:35:13.200Z,19.75
2018-06-02T08:36:13.194Z,19.76
2018-06-02T08:37:13.159Z,19.70
2018-06-02T08:38:13.145Z,19.57
2018-06-02T08:39:13.119Z,19.72
2018-06-02T08:40:13.109Z,19.65
2018-06-02T08:41:13.080Z,19.78
2018-06-02T08:42:13.064Z,19.98
2018-06-02T08:43:13.039Z,19.94
2018-06-02T08:44:13.020Z,19.97
2018-06-02T08:45:13.000Z,19.92
2018-06-02T08:46:12.981Z,19.92
2018-06-02T08:47:12.959Z,19.98
2018-06-02T08:48:12.940Z,19.89
2018-06-02T08:49:12.920Z,19.76
2018-06-02T08:50:12.903Z,19.78
2018-06-02T08:51:12.884Z,19.64
2018-06-02T08:52:12.861Z,19.62
2018-06-02T08:53:12.840Z,19.62
2018-06-02T08:54:12.824Z,19.57
2018-06-02T08:55:12.800Z,19.61
2018-06-02T08:56:12.780Z,19.79
2018-06-02T08:57:12.759Z,19.82
2018-06-02T08:58:12.742Z,19.76
2018-06-02T08:59:12.719Z,19.78
2018-06-02T09:00:12.706Z,19.92
2018-06-02T09:01:12.679Z,19.98
2018-06-02T09:02:12.659Z,19.97
2018-06-02T09:03:12.638Z,20.12
2018-06-02T09:04:12.824Z,20.30
2018-06-02T09:05:12.598Z,20.07
2018-06-02T09:06:12.580Z,20.02
2018-06-02T09:07:12.558Z,20.20
2018-06-02T09:08:12.538Z,20.17
2018-06-02T09:09:12.522Z,20.02
2018-06-02T09:10:12.498Z,20.00
2018-06-02T09:11:12.480Z,20.05
2018-06-02T09:12:12.462Z,19.89
2018-06-02T09:13:12.441Z,19.92
2018-06-02T09:14:12.420Z,19.80
2018-06-02T09:15:12.404Z,19.85
2018-06-02T09:16:12.378Z,19.86
2018-06-02T09:17:12.371Z,19.86
2018-06-02T09:18:12.340Z,19.85
2018-06-02T09:19:12.317Z,19.76
2018-06-02T09:20:12.296Z,19.86
2018-06-02T09:21:12.276Z,19.98
2018-06-02T09:22:12.260Z,20.08
2018-06-02T09:23:12.237Z,20.00
2018-06-02T09:24:12.217Z,19.89
2018-06-02T09:25:12.202Z,19.92
2018-06-02T09:26:12.176Z,20.07
2018-06-02T09:27:12.164Z,20.22
2018-06-02T09:28:12.134Z,20.19
2018-06-02T09:29:12.116Z,20.17
2018-06-02T09:30:12.095Z,20.02
2018-06-02T09:31:12.073Z,20.08
2018-06-02T09:32:12.057Z,20.15
2018-06-02T09:33:12.084Z,20.08
2018-06-02T09:34:12.020Z,20.19
2018-06-02T09:35:12.111Z,20.04
2018-06-02T09:36:11.975Z,20.07
2018-06-02T09:37:11.955Z,19.92
2018-06-02T09:38:11.935Z,19.86
2018-06-02T09:39:11.915Z,19.90
2018-06-02T09:40:11.900Z,20.00
2018-06-02T09:41:11.875Z,20.10
2018-06-02T09:42:11.855Z,20.17
2018-06-02T09:43:11.835Z,20.02
2018-06-02T09:44:11.814Z,20.22
2018-06-02T09:45:11.794Z,20.20
2018-06-02T09:46:11.775Z,20.27
2018-06-02T09:47:11.754Z,20.35
2018-06-02T09:48:11.761Z,20.57
2018-06-02T09:49:11.715Z,20.51
2018-06-02T09:50:11.696Z,20.69
2018-06-02T09:51:11.676Z,20.79
2018-06-02T09:52:11.656Z,20.72
2018-06-02T09:53:11.641Z,20.88
2018-06-02T09:54:11.619Z,20.90
2018-06-02T09:55:11.598Z,21.12
2018-06-02T09:56:11.584Z,21.15
2018-06-02T09:57:11.560Z,21.12
2018-06-02T09:58:11.542Z,20.87
2018-06-02T09:59:11.523Z,20.98
2018-06-02T10:00:11.504Z,20.79
2018-06-02T10:01:11.491Z,20.78
2018-06-02T10:02:11.472Z,20.83
2018-06-02T10:03:11.451Z,20.71
2018-06-02T10:04:11.432Z,20.64
2018-06-02T10:05:11.411Z,20.72
2018-06-02T10:06:11.395Z,20.57
2018-06-02T10:07:11.374Z,20.38
2018-06-02T10:08:11.353Z,20.35
2018-06-02T10:09:11.336Z,20.35
2018-06-02T10:10:11.315Z,20.27
2018-06-02T10:11:11.296Z,20.27
2018-06-02T10:12:11.278Z,20.17
2018-06-02T10:13:11.256Z,20.17
2018-06-02T10:14:11.242Z,20.10
2018-06-02T10:15:11.220Z,20.04
2018-06-02T10:16:11.198Z,20.07
2018-06-02T10:17:11.181Z,20.05
2018-06-02T10:18:11.159Z,20.04
2018-06-02T10:19:11.139Z,20.10
2018-06-02T10:20:11.119Z,20.13
2018-06-02T10:21:11.099Z,20.07
2018-06-02T10:22:11.082Z,20.17
2018-06-02T10:23:11.059Z,20.31
2018-06-02T10:24:11.044Z,20.42
2018-06-02T10:25:11.021Z,20.42
2018-06-02T10:26:11.000Z,20.64
2018-06-02T10:27:10.980Z,20.82
2018-06-02T10:28:10.959Z,20.82
2018-06-02T10:29:10.942Z,20.82
2018-06-02T10:30:10.920Z,21.01
2018-06-02T10:31:10.900Z,21.26
2018-06-02T10:32:10.879Z,21.48
2018-06-02T10:33:10.861Z,21.49
2018-06-02T10:34:10.842Z,21.64
2018-06-02T10:35:10.822Z,21.53
2018-06-02T10:36:10.802Z,21.43
2018-06-02T10:37:10.785Z,21.24
2018-06-02T10:38:10.766Z,21.33
2018-06-02T10:39:10.748Z,21.06
2018-06-02T10:40:10.728Z,21.01
2018-06-02T10:41:10.709Z,20.96
2018-06-02T10:42:10.694Z,20.81
2018-06-02T10:43:10.674Z,20.85
2018-06-02T10:44:10.654Z,20.58
2018-06-02T10:45:10.636Z,20.56
2018-06-02T10:46:10.617Z,20.69
2018-06-02T10:47:10.598Z,20.73
2018-06-02T10:48:10.579Z,20.69
2018-06-02T10:49:10.560Z,20.73
2018-06-02T10:50:10.542Z,20.68
2018-06-02T10:51:10.526Z,20.73
2018-06-02T10:52:10.503Z,20.88
2018-06-02T10:53:10.485Z,20.78
2018-06-02T10:54:10.468Z,20.79
2018-06-02T10:55:10.454Z,20.79
2018-06-02T10:56:10.428Z,20.73
2018-06-02T10:57:10.408Z,20.81
2018-06-02T10:58:10.388Z,20.71
2018-06-02T10:59:10.368Z,20.75
2018-06-02T11:00:10.348Z,20.68
2018-06-02T11:01:10.330Z,20.51
2018-06-02T11:02:10.310Z,20.53
2018-06-02T11:03:10.442Z,20.54
2018-06-02T11:04:10.272Z,20.38
2018-06-02T11:05:10.255Z,20.44
2018-06-02T11:06:10.236Z,20.48
2018-06-02T11:07:10.213Z,20.41
2018-06-02T11:08:10.202Z,20.37
2018-06-02T11:09:10.202Z,20.40
2018-06-02T11:10:10.153Z,20.33
2018-06-02T11:11:10.131Z,20.33
2018-06-02T11:12:10.111Z,20.34
2018-06-02T11:13:10.108Z,20.30
2018-06-02T11:14:10.072Z,20.16
2018-06-02T11:15:10.053Z,20.16
2018-06-02T11:16:10.030Z,20.22
2018-06-02T11:17:10.011Z,20.04
2018-06-02T11:18:09.993Z,20.02
2018-06-02T11:19:09.973Z,20.05
2018-06-02T11:20:10.152Z,20.10
2018-06-02T11:21:09.929Z,20.04
2018-06-02T11:22:09.909Z,20.04
2018-06-02T11:23:09.892Z,20.07
2018-06-02T11:24:09.868Z,20.07
2018-06-02T11:25:09.847Z,20.22
2018-06-02T11:26:09.827Z,20.22
2018-06-02T11:27:09.806Z,20.31
2018-06-02T11:28:09.785Z,20.27
2018-06-02T11:29:09.765Z,20.17
2018-06-02T11:30:09.745Z,20.19
2018-06-02T11:31:09.723Z,20.08
2018-06-02T11:32:09.701Z,19.97
2018-06-02T11:33:09.684Z,20.00
2018-06-02T11:34:09.674Z,20.01
2018-06-02T11:35:09.640Z,19.94
2018-06-02T11:36:09.628Z,19.98
2018-06-02T11:37:09.606Z,19.97
2018-06-02T11:38:09.580Z,19.82
2018-06-02T11:39:09.708Z,19.87
2018-06-02T11:40:09.537Z,19.95
2018-06-02T11:41:09.520Z,19.90
2018-06-02T11:42:09.496Z,19.97
2018-06-02T11:43:09.481Z,20.02
2018-06-02T11:44:09.528Z,19.89
2018-06-02T11:45:09.435Z,19.97
2018-06-02T11:46:09.414Z,20.02
2018-06-02T11:47:09.394Z,20.00
2018-06-02T11:48:09.371Z,19.95
2018-06-02T11:49:09.351Z,19.97
2018-06-02T11:50:09.333Z,19.97
2018-06-02T11:51:09.313Z,19.98
2018-06-02T11:52:09.289Z,19.97
2018-06-02T11:53:09.269Z,19.97
2018-06-02T11:54:09.248Z,19.78
2018-06-02T11:55:09.227Z,19.95
2018-06-02T11:56:09.211Z,19.98
2018-06-02T11:57:09.189Z,20.04
2018-06-02T11:58:09.167Z,20.00
2018-06-02T11:59:09.146Z,20.00
2018-06-02T12:00:09.124Z,20.04
2018-06-02T12:01:09.109Z,20.02
2018-06-02T12:02:09.085Z,20.08
2018-06-02T12:03:09.066Z,20.04
2018-06-02T12:04:09.043Z,20.00
2018-06-02T12:05:09.024Z,20.01
2018-06-02T12:06:09.003Z,19.98
2018-06-02T12:07:08.981Z,19.97
2018-06-02T12:08:08.961Z,19.92
2018-06-02T12:09:08.941Z,19.90
2018-06-02T12:10:08.927Z,19.97
2018-06-02T12:11:08.911Z,20.02
2018-06-02T12:12:08.879Z,20.05
2018-06-02T12:13:08.859Z,19.98
2018-06-02T12:14:08.839Z,19.94
2018-06-02T12:15:08.818Z,19.97
2018-06-02T12:16:08.802Z,20.05
2018-06-02T12:17:08.780Z,20.10
2018-06-02T12:18:08.757Z,20.25
2018-06-02T12:19:08.739Z,20.02
2018-06-02T12:20:08.716Z,19.97
2018-06-02T12:21:08.711Z,20.07
2018-06-02T12:22:08.676Z,20.10
2018-06-02T12:23:08.655Z,20.13
2018-06-02T12:24:08.636Z,20.22
2018-06-02T12:25:08.615Z,20.22
2018-06-02T12:26:08.594Z,20.05
2018-06-02T12:27:08.581Z,19.97
2018-06-02T12:28:08.591Z,19.97
2018-06-02T12:29:08.533Z,19.95
2018-06-02T12:30:08.513Z,19.98
2018-06-02T12:31:08.493Z,19.89
2018-06-02T12:32:08.472Z,19.85
2018-06-02T12:33:08.459Z,19.95
2018-06-02T12:34:08.434Z,19.92
2018-06-02T12:35:08.410Z,19.76
2018-06-02T12:36:08.394Z,19.67
2018-06-02T12:37:08.371Z,19.79
2018-06-02T12:38:08.357Z,19.83
2018-06-02T12:39:08.328Z,19.87
2018-06-02T12:40:08.359Z,19.90
2018-06-02T12:41:08.288Z,20.00
2018-06-02T12:42:08.274Z,19.98
2018-06-02T12:43:08.257Z,19.98
2018-06-02T12:44:08.226Z,20.08
2018-06-02T12:45:08.206Z,19.90
2018-06-02T12:46:08.190Z,19.83
2018-06-02T12:47:08.167Z,19.68
2018-06-02T12:48:08.146Z,19.64
2018-06-02T12:49:08.124Z,19.61
2018-06-02T12:50:08.111Z,19.72
2018-06-02T12:51:08.088Z,19.76
2018-06-02T12:52:08.066Z,19.78
2018-06-02T12:53:08.049Z,19.72